Daretown, New Jersey
Current Conditions -  °F | °C
As of 10:27 AM on Thursday 23 Oct 2014 (Local Time) from KMIV Reporting Station
Overcast Overcast  
Wind Chill: 51°   Ceiling: 1400
Heat Index: 51°   Visibility: 9mi
Dew Point: 47°   Wind: 13mph
Humidity: 86%   Direction: 320°NW
Pressure: 29.77"   Gusts: 28mph
Location:  39.5646°N, 75.1874°W
Report Text: KMIV 231427Z AUTO 32011G24KT 9SM BKN014 BKN022 OVC039 11/08 A2977 RMK AO2 T01060083
Loading
Personal Weather Stations






























Interactive Weather Map
Tropical Storm Tracking
New forecast layout! Learn more

10-Day Weather Forecast

Advertisements
Track Severe Weather on mobile